| time (UTC) | temp F | wind direction | speed knots | gust knots | rain 1hr in | rain 24hr in | rain mn in | humidity % | barometer mb |
| 20260503185010 | 71 | 152 | 0.9 | 7.0 | 0.00 | 0.01 | 0.01 | 40 | 1019.2 |
| 20260503184512 | 71 | 293 | 0.9 | 7.0 | 0.00 | 0.01 | 0.01 | 38 | 1019.2 |
| 20260503184006 | 72 | 321 | 0.0 | 3.5 | 0.00 | 0.01 | 0.01 | 38 | 1019.3 |
| 20260503183508 | 70 | 273 | 0.9 | 3.5 | 0.00 | 0.01 | 0.01 | 39 | 1019.4 |
| 20260503183017 | 70 | 276 | 0.9 | 8.7 | 0.00 | 0.01 | 0.01 | 37 | 1019.3 |
| 20260503182508 | 70 | 117 | 1.7 | 8.7 | 0.00 | 0.01 | 0.01 | 39 | 1019.4 |
| 20260503182006 | 70 | 290 | 1.7 | 4.3 | 0.00 | 0.01 | 0.01 | 37 | 1019.5 |
| 20260503181524 | 70 | 271 | 1.7 | 4.3 | 0.00 | 0.01 | 0.01 | 38 | 1019.6 |
| 20260503181008 | 69 | 252 | 1.7 | 3.5 | 0.00 | 0.01 | 0.01 | 39 | 1019.7 |
| 20260503180509 | 69 | 167 | 1.7 | 6.1 | 0.00 | 0.01 | 0.01 | 38 | 1019.6 |
| 20260503180036 | 70 | 347 | 0.9 | 6.1 | 0.00 | 0.01 | 0.01 | 41 | 1019.7 |
| 20260503175509 | 70 | 292 | 1.7 | 3.5 | 0.00 | 0.01 | 0.01 | 38 | 1019.6 |
| 20260503175010 | 70 | 284 | 0.9 | 5.2 | 0.00 | 0.01 | 0.01 | 41 | 1019.7 |
| 20260503174526 | 70 | 323 | 1.7 | 5.2 | 0.00 | 0.01 | 0.01 | 40 | 1019.7 |
| 20260503174010 | 70 | 276 | 1.7 | 4.3 | 0.00 | 0.01 | 0.01 | 40 | 1019.7 |
| 20260503173459 | 70 | 290 | 0.9 | 4.3 | 0.00 | 0.01 | 0.01 | 40 | 1019.7 |
| 20260503173003 | 69 | 270 | 0.9 | 4.3 | 0.00 | 0.01 | 0.01 | 43 | 1019.7 |
| 20260503172502 | 68 | 95 | 1.7 | 5.2 | 0.00 | 0.01 | 0.01 | 41 | 1019.7 |
| 20260503172003 | 69 | 284 | 1.7 | 5.2 | 0.00 | 0.01 | 0.01 | 42 | 1019.8 |
| 20260503171504 | 69 | 267 | 1.7 | 4.3 | 0.00 | 0.02 | 0.01 | 40 | 1019.7 |
| 20260503171004 | 70 | 227 | 0.9 | 2.6 | 0.00 | 0.02 | 0.01 | 41 | 1019.8 |
| 20260503170502 | 69 | 286 | 0.9 | 2.6 | 0.00 | 0.02 | 0.01 | 46 | 1019.9 |
| 20260503151010 | 63 | 4 | 1.7 | 2.6 | 0.00 | 0.09 | 0.01 | 52 | 1020.9 |
| 20260503150507 | 63 | 52 | 0.9 | 4.3 | 0.00 | 0.09 | 0.01 | 52 | 1021.0 |
| 20260503131003 | 56 | 305 | 0.0 | 0.9 | 0.00 | 0.27 | 0.01 | 74 | 1020.3 |
| 20260503130509 | 55 | 302 | 0.0 | 1.7 | 0.00 | 0.28 | 0.01 | 73 | 1020.3 |
| 20260503110504 | 45 | 340 | 0.0 | 0.0 | 0.00 | 0.41 | 0.00 | 97 | 1019.1 |
| 20260503090510 | 45 | 340 | 0.0 | 0.0 | 0.00 | 0.58 | 0.00 | 96 | 1017.5 |
| 20260503081519 | 46 | 340 | 0.0 | 0.0 | 0.00 | 0.65 | 0.00 | 97 | 1017.2 |
| 20260503081006 | 46 | 340 | 0.0 | 0.0 | 0.00 | 0.65 | 0.00 | 97 | 1017.2 |
| 20260503080507 | 46 | 340 | 0.0 | 0.0 | 0.00 | 0.66 | 0.00 | 97 | 1017.2 |
| 20260503072510 | 47 | 340 | 0.0 | 0.0 | 0.00 | 0.69 | 0.00 | 97 | 1017.0 |
| 20260503072011 | 46 | 340 | 0.0 | 0.0 | 0.00 | 0.70 | 0.00 | 97 | 1016.8 |
| 20260503071529 | 46 | 340 | 0.0 | 0.0 | 0.00 | 0.70 | 0.00 | 96 | 1016.8 |
| 20260503071009 | 46 | 356 | 0.0 | 0.0 | 0.00 | 0.70 | 0.00 | 96 | 1016.8 |
| 20260503070504 | 46 | 356 | 0.0 | 0.0 | 0.00 | 0.71 | 0.00 | 96 | 1016.8 |
| 20260503055011 | 48 | 356 | 0.0 | 0.0 | 0.00 | 0.71 | 0.00 | 95 | 1016.3 |
| 20260503054514 | 48 | 357 | 0.0 | 0.0 | 0.00 | 0.71 | 0.00 | 95 | 1016.4 |
| 20260503054007 | 49 | 356 | 0.0 | 0.0 | 0.00 | 0.71 | 0.00 | 95 | 1016.5 |
| 20260503053507 | 49 | 356 | 0.0 | 0.0 | 0.00 | 0.71 | 0.00 | 95 | 1016.5 |
| 20260503053008 | 49 | 356 | 0.0 | 0.0 | 0.00 | 0.71 | 0.00 | 95 | 1016.4 |
| 20260503052504 | 49 | 357 | 0.0 | 0.0 | 0.00 | 0.71 | 0.00 | 96 | 1016.4 |
| 20260503052006 | 49 | 356 | 0.0 | 0.0 | 0.00 | 0.71 | 0.00 | 96 | 1016.4 |
| 20260503051504 | 49 | 357 | 0.0 | 0.0 | 0.00 | 0.71 | 0.00 | 96 | 1016.4 |
| 20260503051006 | 50 | 357 | 0.0 | 0.0 | 0.00 | 0.71 | 0.00 | 96 | 1016.3 |
| 20260503050503 | 50 | 356 | 0.0 | 0.0 | 0.00 | 0.71 | 0.00 | 95 | 1016.3 |
| 20260503050007 | 50 | 357 | 0.0 | 0.0 | 0.00 | 0.71 | 0.00 | 95 | 1016.3 |
| 20260503045504 | 50 | 356 | 0.0 | 0.0 | 0.00 | 0.71 | 0.00 | 95 | 1016.2 |
| 20260503045004 | 50 | 357 | 0.0 | 0.0 | 0.00 | 0.71 | 0.00 | 96 | 1016.2 |
| 20260503044511 | 50 | 356 | 0.0 | 0.0 | 0.00 | 0.71 | 0.00 | 96 | 1016.2 |
| 20260503044008 | 50 | 356 | 0.0 | 0.0 | 0.00 | 0.71 | 0.00 | 95 | 1016.1 |
| 20260503043507 | 50 | 356 | 0.0 | 0.0 | 0.00 | 0.71 | 0.00 | 95 | 1016.2 |
| 20260503043016 | 51 | 356 | 0.0 | 0.0 | 0.00 | 0.71 | 0.00 | 96 | 1016.1 |
| 20260503042508 | 51 | 356 | 0.0 | 0.0 | 0.00 | 0.71 | 0.00 | 96 | 1016.3 |
| 20260503042010 | 51 | 357 | 0.0 | 0.0 | 0.00 | 0.71 | 0.00 | 96 | 1016.4 |
| 20260503041520 | 51 | 357 | 0.0 | 0.0 | 0.00 | 0.71 | 0.00 | 96 | 1016.3 |
| 20260503041003 | 51 | 356 | 0.0 | 0.0 | 0.00 | 0.71 | 0.00 | 96 | 1016.3 |
| 20260503040503 | 50 | 356 | 0.0 | 0.0 | 0.00 | 0.71 | 0.00 | 95 | 1016.3 |
| 20260503040006 | 50 | 356 | 0.0 | 0.0 | 0.00 | 0.71 | 0.00 | 95 | 1016.2 |
| 20260503035504 | 50 | 356 | 0.0 | 0.0 | 0.00 | 0.71 | 0.71 | 95 | 1016.1 |
| 20260503035002 | 51 | 356 | 0.0 | 0.0 | 0.00 | 0.71 | 0.71 | 95 | 1016.2 |
| 20260503034509 | 51 | 358 | 0.0 | 0.0 | 0.00 | 0.71 | 0.71 | 95 | 1016.2 |
| 20260503034004 | 51 | 358 | 0.0 | 0.0 | 0.00 | 0.71 | 0.71 | 96 | 1016.3 |
| 20260503033504 | 51 | 358 | 0.0 | 0.0 | 0.00 | 0.71 | 0.71 | 96 | 1016.2 |
| 20260503033023 | 51 | 358 | 0.0 | 0.0 | 0.00 | 0.71 | 0.71 | 96 | 1016.2 |
| 20260503032507 | 51 | 358 | 0.0 | 0.0 | 0.00 | 0.71 | 0.71 | 96 | 1016.1 |
| 20260503032007 | 51 | 358 | 0.0 | 0.0 | 0.00 | 0.71 | 0.71 | 96 | 1016.1 |
| 20260503031516 | 51 | 358 | 0.0 | 0.0 | 0.00 | 0.71 | 0.71 | 96 | 1015.9 |
| 20260503031008 | 51 | 358 | 0.0 | 0.0 | 0.00 | 0.71 | 0.71 | 96 | 1015.8 |
| 20260503030508 | 51 | 358 | 0.0 | 0.0 | 0.00 | 0.71 | 0.71 | 96 | 1015.9 |
| 20260503030022 | 51 | 358 | 0.0 | 0.0 | 0.00 | 0.71 | 0.71 | 96 | 1015.7 |
| 20260503025507 | 51 | 359 | 0.0 | 0.0 | 0.00 | 0.71 | 0.71 | 96 | 1015.5 |
| 20260503025004 | 51 | 358 | 0.0 | 0.0 | 0.00 | 0.71 | 0.71 | 95 | 1015.4 |
| 20260503024506 | 51 | 358 | 0.0 | 0.0 | 0.00 | 0.71 | 0.71 | 96 | 1015.4 |
| 20260503024005 | 51 | 358 | 0.0 | 0.0 | 0.00 | 0.71 | 0.71 | 96 | 1015.2 |
| 20260503023503 | 51 | 359 | 0.0 | 0.0 | 0.00 | 0.71 | 0.71 | 96 | 1015.2 |
| 20260503023009 | 51 | 359 | 0.0 | 0.0 | 0.00 | 0.71 | 0.71 | 96 | 1015.0 |
| 20260503022504 | 51 | 359 | 0.0 | 0.0 | 0.00 | 0.71 | 0.71 | 96 | 1015.1 |
| 20260503022004 | 51 | 359 | 0.0 | 0.0 | 0.00 | 0.71 | 0.71 | 96 | 1015.0 |
| 20260503021514 | 51 | 358 | 0.0 | 0.0 | 0.00 | 0.71 | 0.71 | 96 | 1014.8 |
| 20260503021007 | 50 | 359 | 0.0 | 0.0 | 0.00 | 0.71 | 0.71 | 96 | 1014.7 |
| 20260503020508 | 50 | 359 | 0.0 | 0.0 | 0.00 | 0.71 | 0.71 | 96 | 1014.6 |
| 20260503020020 | 50 | 359 | 0.0 | 0.0 | 0.00 | 0.71 | 0.71 | 96 | 1014.5 |
| 20260503015509 | 50 | 359 | 0.0 | 0.0 | 0.00 | 0.71 | 0.71 | 95 | 1014.6 |
| 20260503015006 | 50 | 359 | 0.0 | 0.0 | 0.00 | 0.71 | 0.71 | 95 | 1014.5 |
| 20260503014537 | 50 | 359 | 0.0 | 0.0 | 0.00 | 0.71 | 0.71 | 95 | 1014.4 |
| 20260503014007 | 49 | 359 | 0.0 | 0.0 | 0.00 | 0.71 | 0.71 | 95 | 1014.2 |
| 20260503013507 | 49 | 359 | 0.0 | 0.0 | 0.00 | 0.71 | 0.71 | 95 | 1014.2 |
| 20260503013007 | 49 | 359 | 0.0 | 0.0 | 0.00 | 0.71 | 0.71 | 95 | 1014.2 |
| 20260503012505 | 49 | 359 | 0.0 | 0.0 | 0.00 | 0.71 | 0.71 | 95 | 1014.2 |
| 20260503012004 | 49 | 358 | 0.0 | 0.0 | 0.00 | 0.71 | 0.71 | 94 | 1014.1 |
| 20260503011512 | 49 | 359 | 0.0 | 0.0 | 0.00 | 0.71 | 0.71 | 94 | 1014.0 |
| 20260503011007 | 49 | 359 | 0.0 | 0.0 | 0.00 | 0.71 | 0.71 | 93 | 1014.0 |
| 20260503010508 | 49 | 359 | 0.0 | 0.0 | 0.00 | 0.71 | 0.71 | 93 | 1014.0 |
| 20260503010018 | 49 | 359 | 0.0 | 0.0 | 0.00 | 0.71 | 0.71 | 93 | 1014.0 |
| 20260503005507 | 50 | 359 | 0.0 | 0.0 | 0.00 | 0.71 | 0.71 | 93 | 1014.0 |
| 20260503005007 | 50 | 359 | 0.0 | 0.0 | 0.00 | 0.71 | 0.71 | 93 | 1014.1 |
| 20260503004558 | 50 | 358 | 0.0 | 0.0 | 0.00 | 0.71 | 0.71 | 92 | 1013.9 |
| 20260503004011 | 51 | 359 | 0.0 | 0.0 | 0.00 | 0.71 | 0.71 | 92 | 1013.9 |
| 20260503003506 | 51 | 359 | 0.0 | 0.0 | 0.00 | 0.71 | 0.71 | 91 | 1013.8 |
| 20260503003024 | 51 | 359 | 0.0 | 0.0 | 0.00 | 0.71 | 0.71 | 91 | 1013.6 |
| 20260503002507 | 52 | 359 | 0.0 | 0.0 | 0.00 | 0.71 | 0.71 | 91 | 1013.6 |
| 20260503002011 | 52 | 359 | 0.0 | 0.0 | 0.00 | 0.71 | 0.71 | 90 | 1013.5 |
| 20260503001528 | 53 | 359 | 0.0 | 0.0 | 0.00 | 0.71 | 0.71 | 90 | 1013.4 |
| 20260503001006 | 53 | 359 | 0.0 | 0.0 | 0.00 | 0.71 | 0.71 | 89 | 1013.3 |
| 20260503000508 | 53 | 359 | 0.0 | 0.0 | 0.00 | 0.71 | 0.71 | 88 | 1013.2 |
| 20260503000013 | 54 | 359 | 0.0 | 0.0 | 0.00 | 0.71 | 0.71 | 86 | 1013.0 |
| 20260502235510 | 55 | 359 | 0.0 | 0.0 | 0.00 | 0.71 | 0.71 | 85 | 1013.0 |
| 20260502235008 | 55 | 359 | 0.0 | 0.0 | 0.00 | 0.71 | 0.71 | 84 | 1013.0 |
| 20260502234519 | 56 | 359 | 0.0 | 0.0 | 0.00 | 0.71 | 0.71 | 82 | 1013.0 |
| 20260502234006 | 56 | 359 | 0.0 | 0.0 | 0.00 | 0.71 | 0.71 | 82 | 1012.8 |
| 20260502233507 | 56 | 359 | 0.0 | 0.0 | 0.00 | 0.71 | 0.71 | 82 | 1012.8 |
| 20260502233023 | 56 | 359 | 0.0 | 0.0 | 0.00 | 0.71 | 0.71 | 82 | 1012.8 |
| 20260502232507 | 56 | 359 | 0.0 | 0.0 | 0.00 | 0.71 | 0.71 | 82 | 1012.8 |
| 20260502232007 | 56 | 359 | 0.0 | 0.9 | 0.00 | 0.71 | 0.71 | 82 | 1012.8 |
| 20260502231527 | 56 | 359 | 0.0 | 0.9 | 0.00 | 0.71 | 0.71 | 82 | 1012.7 |
| 20260502231009 | 56 | 359 | 0.0 | 0.0 | 0.00 | 0.71 | 0.71 | 83 | 1012.6 |
| 20260502230509 | 56 | 358 | 0.0 | 0.0 | 0.00 | 0.71 | 0.71 | 83 | 1012.7 |
| 20260502230026 | 56 | 1 | 0.0 | 0.0 | 0.00 | 0.71 | 0.71 | 83 | 1012.7 |
| 20260502225508 | 57 | 1 | 0.0 | 0.0 | 0.00 | 0.71 | 0.71 | 83 | 1012.7 |
| 20260502225008 | 57 | 1 | 0.0 | 0.0 | 0.00 | 0.71 | 0.71 | 81 | 1012.7 |
| 20260502224516 | 57 | 1 | 0.0 | 0.0 | 0.00 | 0.71 | 0.71 | 82 | 1012.6 |
| 20260502224006 | 57 | 2 | 0.0 | 0.9 | 0.00 | 0.71 | 0.71 | 81 | 1012.6 |
| 20260502223506 | 57 | 2 | 0.0 | 0.9 | 0.00 | 0.71 | 0.71 | 81 | 1012.7 |
| 20260502223022 | 57 | 2 | 0.0 | 0.9 | 0.00 | 0.71 | 0.71 | 80 | 1012.7 |
| 20260502222507 | 57 | 317 | 0.0 | 0.9 | 0.00 | 0.71 | 0.71 | 81 | 1012.7 |
| 20260502222007 | 57 | 318 | 0.0 | 0.9 | 0.00 | 0.71 | 0.71 | 81 | 1012.7 |
| 20260502221523 | 57 | 317 | 0.0 | 0.9 | 0.00 | 0.71 | 0.71 | 80 | 1012.7 |
| 20260502221009 | 57 | 317 | 0.0 | 1.7 | 0.00 | 0.71 | 0.71 | 80 | 1012.6 |
| 20260502220511 | 57 | 14 | 0.0 | 1.7 | 0.00 | 0.71 | 0.71 | 80 | 1012.6 |
| 20260502220029 | 57 | 32 | 0.0 | 1.7 | 0.00 | 0.71 | 0.71 | 79 | 1012.5 |
| 20260502215509 | 57 | 353 | 0.0 | 0.9 | 0.00 | 0.71 | 0.71 | 79 | 1012.4 |
| 20260502215008 | 57 | 354 | 0.0 | 1.7 | 0.00 | 0.71 | 0.71 | 79 | 1012.4 |
| 20260502214526 | 57 | 352 | 0.0 | 2.6 | 0.00 | 0.71 | 0.71 | 78 | 1012.3 |
| 20260502214011 | 57 | 252 | 0.0 | 3.5 | 0.00 | 0.71 | 0.71 | 78 | 1012.3 |
| 20260502213508 | 57 | 360 | 0.0 | 3.5 | 0.00 | 0.71 | 0.71 | 77 | 1012.3 |
| 20260502213016 | 57 | 257 | 0.0 | 2.6 | 0.00 | 0.71 | 0.71 | 79 | 1012.2 |
| 20260502212507 | 57 | 337 | 0.9 | 6.1 | 0.00 | 0.71 | 0.71 | 78 | 1012.2 |
| 20260502212006 | 57 | 308 | 0.9 | 6.1 | 0.00 | 0.71 | 0.71 | 81 | 1012.3 |
| 20260502211535 | 57 | 6 | 0.9 | 2.6 | 0.00 | 0.71 | 0.71 | 80 | 1012.3 |
| 20260502211008 | 57 | 268 | 0.0 | 5.2 | 0.00 | 0.71 | 0.71 | 81 | 1012.3 |
| 20260502210509 | 56 | 297 | 0.0 | 5.2 | 0.00 | 0.71 | 0.71 | 83 | 1012.2 |
| 20260502210033 | 56 | 15 | 0.0 | 1.7 | 0.00 | 0.71 | 0.71 | 83 | 1012.3 |
| 20260502205510 | 56 | 332 | 0.9 | 1.7 | 0.00 | 0.71 | 0.71 | 85 | 1012.3 |
| 20260502205008 | 56 | 302 | 0.0 | 2.6 | 0.00 | 0.71 | 0.71 | 85 | 1012.3 |
| 20260502204525 | 55 | 294 | 0.0 | 2.6 | 0.00 | 0.71 | 0.71 | 85 | 1012.3 |
| 20260502204010 | 55 | 341 | 0.9 | 2.6 | 0.00 | 0.71 | 0.71 | 86 | 1012.2 |
| 20260502203510 | 55 | 298 | 0.0 | 1.7 | 0.00 | 0.71 | 0.71 | 87 | 1012.2 |
| 20260502203029 | 55 | 266 | 0.0 | 1.7 | 0.00 | 0.71 | 0.71 | 88 | 1012.2 |
| 20260502202510 | 55 | 297 | 0.0 | 1.7 | 0.00 | 0.71 | 0.71 | 87 | 1012.2 |
| 20260502202011 | 55 | 359 | 0.0 | 3.5 | 0.00 | 0.71 | 0.71 | 87 | 1012.4 |
| 20260502201517 | 55 | 342 | 0.0 | 3.5 | 0.00 | 0.71 | 0.71 | 89 | 1012.4 |
| 20260502201007 | 55 | 250 | 0.0 | 1.7 | 0.00 | 0.71 | 0.71 | 89 | 1012.4 |
| 20260502200506 | 55 | 289 | 0.0 | 1.7 | 0.00 | 0.71 | 0.71 | 89 | 1012.4 |
| 20260502200026 | 55 | 308 | 0.0 | 1.7 | 0.00 | 0.71 | 0.71 | 88 | 1012.4 |
| 20260502195510 | 55 | 337 | 0.0 | 1.7 | 0.00 | 0.71 | 0.71 | 89 | 1012.5 |
| 20260502195010 | 55 | 328 | 0.0 | 2.6 | 0.00 | 0.71 | 0.71 | 88 | 1012.5 |
| 20260502194523 | 55 | 350 | 0.0 | 2.6 | 0.00 | 0.71 | 0.71 | 87 | 1012.5 |
| 20260502194010 | 55 | 278 | 0.9 | 3.5 | 0.00 | 0.71 | 0.71 | 88 | 1012.7 |
| 20260502193517 | 55 | 360 | 0.9 | 3.5 | 0.00 | 0.71 | 0.71 | 87 | 1012.7 |
| 20260502193026 | 55 | 39 | 0.9 | 4.3 | 0.00 | 0.71 | 0.71 | 88 | 1012.7 |
| 20260502192512 | 55 | 306 | 0.9 | 4.3 | 0.00 | 0.71 | 0.71 | 87 | 1012.8 |
| 20260502192009 | 55 | 319 | 0.0 | 0.9 | 0.00 | 0.71 | 0.71 | 89 | 1012.8 |
| 20260502191528 | 55 | 302 | 0.0 | 3.5 | 0.00 | 0.71 | 0.71 | 89 | 1012.7 |
| 20260502191010 | 55 | 20 | 0.9 | 3.5 | 0.00 | 0.71 | 0.71 | 88 | 1012.7 |
| 20260502190511 | 55 | 315 | 0.9 | 3.5 | 0.00 | 0.71 | 0.71 | 89 | 1012.6 |
| 20260502190033 | 55 | 101 | 0.0 | 2.6 | 0.00 | 0.71 | 0.71 | 91 | 1012.5 |
| 20260502185506 | 55 | 307 | 0.0 | 3.5 | 0.00 | 0.71 | 0.71 | 90 | 1012.7 |